sensor_id;sensor_type;location;lat;lon;timestamp;temperature;humidity
46041;DHT22;31779;49.124;19.190;2022-12-18T00:00:00;-8.00;99.90
46041;DHT22;31779;49.124;19.190;2022-12-18T00:02:28;-8.00;99.90
46041;DHT22;31779;49.124;19.190;2022-12-18T00:04:56;-8.00;99.90
46041;DHT22;31779;49.124;19.190;2022-12-18T00:07:24;-8.20;99.90
46041;DHT22;31779;49.124;19.190;2022-12-18T00:09:52;-8.30;99.90
46041;DHT22;31779;49.124;19.190;2022-12-18T00:12:19;-8.30;99.90
46041;DHT22;31779;49.124;19.190;2022-12-18T00:14:47;-8.40;99.90
46041;DHT22;31779;49.124;19.190;2022-12-18T00:17:15;-8.40;99.90
46041;DHT22;31779;49.124;19.190;2022-12-18T00:19:44;-8.40;99.90
46041;DHT22;31779;49.124;19.190;2022-12-18T00:22:11;-8.40;99.90
46041;DHT22;31779;49.124;19.190;2022-12-18T00:24:39;-8.40;99.90
46041;DHT22;31779;49.124;19.190;2022-12-18T00:27:07;-8.40;99.90
46041;DHT22;31779;49.124;19.190;2022-12-18T00:29:35;-8.50;99.90
46041;DHT22;31779;49.124;19.190;2022-12-18T00:32:06;-8.50;99.90
46041;DHT22;31779;49.124;19.190;2022-12-18T00:34:34;-8.50;99.90
46041;DHT22;31779;49.124;19.190;2022-12-18T00:37:02;-8.60;99.90
46041;DHT22;31779;49.124;19.190;2022-12-18T00:39:30;-8.50;99.90
46041;DHT22;31779;49.124;19.190;2022-12-18T00:41:59;-8.60;99.90
46041;DHT22;31779;49.124;19.190;2022-12-18T00:44:48;-8.70;99.90
46041;DHT22;31779;49.124;19.190;2022-12-18T00:47:16;-8.90;99.90
46041;DHT22;31779;49.124;19.190;2022-12-18T00:49:43;-8.70;99.90
46041;DHT22;31779;49.124;19.190;2022-12-18T00:52:11;-8.70;99.90
46041;DHT22;31779;49.124;19.190;2022-12-18T00:54:39;-8.80;99.90
46041;DHT22;31779;49.124;19.190;2022-12-18T00:57:07;-8.70;99.90
46041;DHT22;31779;49.124;19.190;2022-12-18T00:59:35;-8.80;99.90
46041;DHT22;31779;49.124;19.190;2022-12-18T01:02:03;-8.80;99.90
46041;DHT22;31779;49.124;19.190;2022-12-18T01:04:32;-9.00;99.90
46041;DHT22;31779;49.124;19.190;2022-12-18T01:07:00;-9.10;99.90
46041;DHT22;31779;49.124;19.190;2022-12-18T01:09:28;-9.10;99.90
46041;DHT22;31779;49.124;19.190;2022-12-18T01:11:56;-9.00;99.90
46041;DHT22;31779;49.124;19.190;2022-12-18T01:14:24;-9.10;99.90
46041;DHT22;31779;49.124;19.190;2022-12-18T01:16:52;-9.00;99.90
46041;DHT22;31779;49.124;19.190;2022-12-18T01:19:21;-9.00;99.90
46041;DHT22;31779;49.124;19.190;2022-12-18T01:21:48;-9.00;99.90
46041;DHT22;31779;49.124;19.190;2022-12-18T01:24:16;-9.10;99.90
46041;DHT22;31779;49.124;19.190;2022-12-18T01:26:44;-9.10;99.90
46041;DHT22;31779;49.124;19.190;2022-12-18T01:29:14;-9.10;99.90
46041;DHT22;31779;49.124;19.190;2022-12-18T01:31:41;-9.40;99.90
46041;DHT22;31779;49.124;19.190;2022-12-18T01:34:09;-9.30;99.90
46041;DHT22;31779;49.124;19.190;2022-12-18T01:36:38;-9.30;99.90
46041;DHT22;31779;49.124;19.190;2022-12-18T01:39:13;-9.30;99.90
46041;DHT22;31779;49.124;19.190;2022-12-18T01:41:42;-9.40;99.90
46041;DHT22;31779;49.124;19.190;2022-12-18T01:50:16;-9.50;99.90
46041;DHT22;31779;49.124;19.190;2022-12-18T01:52:47;-9.40;99.90
46041;DHT22;31779;49.124;19.190;2022-12-18T01:55:18;-9.50;99.90
46041;DHT22;31779;49.124;19.190;2022-12-18T01:57:46;-9.50;99.90
46041;DHT22;31779;49.124;19.190;2022-12-18T02:00:17;-9.40;99.90
46041;DHT22;31779;49.124;19.190;2022-12-18T02:02:46;-9.40;99.90
46041;DHT22;31779;49.124;19.190;2022-12-18T02:05:22;-9.40;99.90
46041;DHT22;31779;49.124;19.190;2022-12-18T02:08:57;-9.50;99.90
46041;DHT22;31779;49.124;19.190;2022-12-18T02:14:21;-9.60;99.90
46041;DHT22;31779;49.124;19.190;2022-12-18T02:17:18;-9.60;99.90
46041;DHT22;31779;49.124;19.190;2022-12-18T02:28:16;-9.70;99.90
46041;DHT22;31779;49.124;19.190;2022-12-18T02:30:49;-9.80;99.90
46041;DHT22;31779;49.124;19.190;2022-12-18T02:33:19;-10.00;99.90
46041;DHT22;31779;49.124;19.190;2022-12-18T02:35:50;-10.00;99.90
46041;DHT22;31779;49.124;19.190;2022-12-18T02:38:20;-9.90;99.90
46041;DHT22;31779;49.124;19.190;2022-12-18T02:40:51;-9.90;99.90
46041;DHT22;31779;49.124;19.190;2022-12-18T02:43:24;-9.90;99.90
46041;DHT22;31779;49.124;19.190;2022-12-18T02:45:58;-9.90;99.90
46041;DHT22;31779;49.124;19.190;2022-12-18T02:48:33;-9.90;99.90
46041;DHT22;31779;49.124;19.190;2022-12-18T02:53:53;-9.90;99.90
46041;DHT22;31779;49.124;19.190;2022-12-18T02:56:31;-10.00;99.90
46041;DHT22;31779;49.124;19.190;2022-12-18T03:04:29;-10.00;99.90
46041;DHT22;31779;49.124;19.190;2022-12-18T03:07:02;-10.00;99.90
46041;DHT22;31779;49.124;19.190;2022-12-18T03:09:37;-10.00;99.90
46041;DHT22;31779;49.124;19.190;2022-12-18T03:17:33;-10.10;99.90
46041;DHT22;31779;49.124;19.190;2022-12-18T03:20:14;-10.10;99.90
46041;DHT22;31779;49.124;19.190;2022-12-18T03:22:43;-10.20;99.90
46041;DHT22;31779;49.124;19.190;2022-12-18T03:25:14;-10.30;99.90
46041;DHT22;31779;49.124;19.190;2022-12-18T03:27:48;-10.20;99.90
46041;DHT22;31779;49.124;19.190;2022-12-18T03:30:17;-10.20;99.90
46041;DHT22;31779;49.124;19.190;2022-12-18T03:32:50;-10.20;99.90
46041;DHT22;31779;49.124;19.190;2022-12-18T03:35:33;-10.20;99.90
46041;DHT22;31779;49.124;19.190;2022-12-18T03:38:04;-10.20;99.90
46041;DHT22;31779;49.124;19.190;2022-12-18T03:40:56;-10.30;99.90
46041;DHT22;31779;49.124;19.190;2022-12-18T03:44:21;-10.20;99.90
46041;DHT22;31779;49.124;19.190;2022-12-18T03:46:35;-10.20;99.90
46041;DHT22;31779;49.124;19.190;2022-12-18T03:49:11;-10.40;99.90
46041;DHT22;31779;49.124;19.190;2022-12-18T03:51:52;-10.40;99.90
46041;DHT22;31779;49.124;19.190;2022-12-18T03:54:21;-10.40;99.90
46041;DHT22;31779;49.124;19.190;2022-12-18T03:57:09;-10.40;99.90
46041;DHT22;31779;49.124;19.190;2022-12-18T03:59:39;-10.50;99.90
46041;DHT22;31779;49.124;19.190;2022-12-18T04:02:08;-10.50;99.90
46041;DHT22;31779;49.124;19.190;2022-12-18T04:04:38;-10.50;99.90
46041;DHT22;31779;49.124;19.190;2022-12-18T04:07:08;-10.50;99.90
46041;DHT22;31779;49.124;19.190;2022-12-18T04:09:39;-10.50;99.90
46041;DHT22;31779;49.124;19.190;2022-12-18T04:12:09;-10.60;99.90
46041;DHT22;31779;49.124;19.190;2022-12-18T04:14:37;-10.70;99.90
46041;DHT22;31779;49.124;19.190;2022-12-18T04:17:08;-10.60;99.90
46041;DHT22;31779;49.124;19.190;2022-12-18T04:19:36;-10.50;99.90
46041;DHT22;31779;49.124;19.190;2022-12-18T04:22:04;-10.50;99.90
46041;DHT22;31779;49.124;19.190;2022-12-18T04:24:39;-10.60;99.90
46041;DHT22;31779;49.124;19.190;2022-12-18T04:27:25;-10.60;99.90
46041;DHT22;31779;49.124;19.190;2022-12-18T04:29:54;-10.70;99.90
46041;DHT22;31779;49.124;19.190;2022-12-18T04:32:22;-10.60;99.90
46041;DHT22;31779;49.124;19.190;2022-12-18T04:34:51;-10.70;99.90
46041;DHT22;31779;49.124;19.190;2022-12-18T04:37:19;-10.60;99.90
46041;DHT22;31779;49.124;19.190;2022-12-18T04:39:49;-10.60;99.90
46041;DHT22;31779;49.124;19.190;2022-12-18T04:42:24;-10.70;99.90
46041;DHT22;31779;49.124;19.190;2022-12-18T04:44:52;-10.70;99.90
46041;DHT22;31779;49.124;19.190;2022-12-18T04:47:20;-10.70;99.90
46041;DHT22;31779;49.124;19.190;2022-12-18T04:49:47;-10.80;99.90
46041;DHT22;31779;49.124;19.190;2022-12-18T04:52:15;-10.70;99.90
46041;DHT22;31779;49.124;19.190;2022-12-18T04:54:44;-10.80;99.90
46041;DHT22;31779;49.124;19.190;2022-12-18T04:57:12;-11.00;99.90
46041;DHT22;31779;49.124;19.190;2022-12-18T04:59:40;-10.90;99.90
46041;DHT22;31779;49.124;19.190;2022-12-18T05:02:08;-10.90;99.90
46041;DHT22;31779;49.124;19.190;2022-12-18T05:04:36;-10.90;99.90
46041;DHT22;31779;49.124;19.190;2022-12-18T05:07:04;-11.00;99.90
46041;DHT22;31779;49.124;19.190;2022-12-18T05:09:32;-11.00;99.90
46041;DHT22;31779;49.124;19.190;2022-12-18T05:12:00;-11.00;99.90
46041;DHT22;31779;49.124;19.190;2022-12-18T05:14:27;-11.00;99.90
46041;DHT22;31779;49.124;19.190;2022-12-18T05:16:56;-10.90;99.90
46041;DHT22;31779;49.124;19.190;2022-12-18T05:19:27;-10.90;99.90
46041;DHT22;31779;49.124;19.190;2022-12-18T05:21:55;-11.00;99.90
46041;DHT22;31779;49.124;19.190;2022-12-18T05:24:22;-11.00;99.90
46041;DHT22;31779;49.124;19.190;2022-12-18T05:26:50;-11.00;99.90
46041;DHT22;31779;49.124;19.190;2022-12-18T05:29:18;-11.10;99.90
46041;DHT22;31779;49.124;19.190;2022-12-18T05:31:46;-11.10;99.90
46041;DHT22;31779;49.124;19.190;2022-12-18T05:34:14;-11.20;99.90
46041;DHT22;31779;49.124;19.190;2022-12-18T05:36:42;-11.10;99.90
46041;DHT22;31779;49.124;19.190;2022-12-18T05:39:10;-11.10;99.90
46041;DHT22;31779;49.124;19.190;2022-12-18T05:41:38;-11.10;99.90
46041;DHT22;31779;49.124;19.190;2022-12-18T05:44:07;-11.00;99.90
46041;DHT22;31779;49.124;19.190;2022-12-18T05:46:36;-11.00;99.90
46041;DHT22;31779;49.124;19.190;2022-12-18T05:49:03;-11.00;99.90
46041;DHT22;31779;49.124;19.190;2022-12-18T05:51:31;-11.10;99.90
46041;DHT22;31779;49.124;19.190;2022-12-18T05:53:59;-11.10;99.90
46041;DHT22;31779;49.124;19.190;2022-12-18T05:56:27;-11.20;99.90
46041;DHT22;31779;49.124;19.190;2022-12-18T05:58:55;-11.20;99.90
46041;DHT22;31779;49.124;19.190;2022-12-18T06:01:25;-11.20;99.90
46041;DHT22;31779;49.124;19.190;2022-12-18T06:03:54;-11.20;99.90
46041;DHT22;31779;49.124;19.190;2022-12-18T06:06:25;-11.30;99.90
46041;DHT22;31779;49.124;19.190;2022-12-18T06:08:53;-11.30;99.90
46041;DHT22;31779;49.124;19.190;2022-12-18T06:11:24;-11.30;99.90
46041;DHT22;31779;49.124;19.190;2022-12-18T06:13:54;-11.40;99.90
46041;DHT22;31779;49.124;19.190;2022-12-18T06:16:26;-11.40;99.90
46041;DHT22;31779;49.124;19.190;2022-12-18T06:19:02;-11.40;99.90
46041;DHT22;31779;49.124;19.190;2022-12-18T06:21:31;-11.30;99.90
46041;DHT22;31779;49.124;19.190;2022-12-18T06:24:00;-11.30;99.90
46041;DHT22;31779;49.124;19.190;2022-12-18T06:26:28;-11.40;99.90
46041;DHT22;31779;49.124;19.190;2022-12-18T06:28:56;-11.40;99.90
46041;DHT22;31779;49.124;19.190;2022-12-18T06:31:24;-11.30;99.90
46041;DHT22;31779;49.124;19.190;2022-12-18T06:33:52;-11.40;99.90
46041;DHT22;31779;49.124;19.190;2022-12-18T06:36:20;-11.30;99.90
46041;DHT22;31779;49.124;19.190;2022-12-18T06:38:48;-11.30;99.90
46041;DHT22;31779;49.124;19.190;2022-12-18T06:41:19;-11.40;99.90
46041;DHT22;31779;49.124;19.190;2022-12-18T06:43:47;-11.40;99.90
46041;DHT22;31779;49.124;19.190;2022-12-18T06:46:15;-11.30;99.90
46041;DHT22;31779;49.124;19.190;2022-12-18T06:48:42;-11.20;99.90
46041;DHT22;31779;49.124;19.190;2022-12-18T06:51:11;-11.00;99.90
46041;DHT22;31779;49.124;19.190;2022-12-18T06:53:38;-10.90;99.90
46041;DHT22;31779;49.124;19.190;2022-12-18T06:56:07;-10.90;99.90
46041;DHT22;31779;49.124;19.190;2022-12-18T06:58:38;-10.60;99.90
46041;DHT22;31779;49.124;19.190;2022-12-18T07:01:09;-10.50;99.90
46041;DHT22;31779;49.124;19.190;2022-12-18T07:03:39;-10.40;99.90
46041;DHT22;31779;49.124;19.190;2022-12-18T07:06:14;-10.30;99.90
46041;DHT22;31779;49.124;19.190;2022-12-18T07:08:43;-10.30;99.90
46041;DHT22;31779;49.124;19.190;2022-12-18T07:11:11;-10.10;99.90
46041;DHT22;31779;49.124;19.190;2022-12-18T07:13:39;-9.90;99.90
46041;DHT22;31779;49.124;19.190;2022-12-18T07:16:15;-9.70;99.90
46041;DHT22;31779;49.124;19.190;2022-12-18T07:18:52;-9.50;99.90
46041;DHT22;31779;49.124;19.190;2022-12-18T07:21:22;-9.30;99.90
46041;DHT22;31779;49.124;19.190;2022-12-18T07:23:50;-9.20;99.90
46041;DHT22;31779;49.124;19.190;2022-12-18T07:26:19;-9.20;99.90
46041;DHT22;31779;49.124;19.190;2022-12-18T07:28:50;-9.10;99.90
46041;DHT22;31779;49.124;19.190;2022-12-18T07:31:20;-9.10;99.90
46041;DHT22;31779;49.124;19.190;2022-12-18T07:33:50;-9.10;99.90
46041;DHT22;31779;49.124;19.190;2022-12-18T07:36:19;-9.00;99.90
46041;DHT22;31779;49.124;19.190;2022-12-18T07:38:50;-8.70;99.90
46041;DHT22;31779;49.124;19.190;2022-12-18T07:41:21;-8.60;99.90
46041;DHT22;31779;49.124;19.190;2022-12-18T07:43:49;-8.50;99.90
46041;DHT22;31779;49.124;19.190;2022-12-18T07:46:17;-8.30;99.90
46041;DHT22;31779;49.124;19.190;2022-12-18T07:48:46;-8.20;99.90
46041;DHT22;31779;49.124;19.190;2022-12-18T07:51:17;-8.00;99.90
46041;DHT22;31779;49.124;19.190;2022-12-18T07:53:45;-7.60;99.90
46041;DHT22;31779;49.124;19.190;2022-12-18T07:56:19;-7.20;99.90
46041;DHT22;31779;49.124;19.190;2022-12-18T07:58:56;-7.50;99.90
46041;DHT22;31779;49.124;19.190;2022-12-18T08:01:25;-7.70;99.90
46041;DHT22;31779;49.124;19.190;2022-12-18T08:03:53;-7.70;99.90
46041;DHT22;31779;49.124;19.190;2022-12-18T08:06:22;-7.80;99.90
46041;DHT22;31779;49.124;19.190;2022-12-18T08:08:56;-7.60;99.90
46041;DHT22;31779;49.124;19.190;2022-12-18T08:11:26;-7.40;99.90
46041;DHT22;31779;49.124;19.190;2022-12-18T08:13:55;-7.60;99.90
46041;DHT22;31779;49.124;19.190;2022-12-18T08:16:23;-7.30;99.90
46041;DHT22;31779;49.124;19.190;2022-12-18T08:18:52;-7.00;99.90
46041;DHT22;31779;49.124;19.190;2022-12-18T08:21:26;-7.30;99.90
46041;DHT22;31779;49.124;19.190;2022-12-18T08:23:56;-7.00;99.90
46041;DHT22;31779;49.124;19.190;2022-12-18T08:26:27;-6.90;99.90
46041;DHT22;31779;49.124;19.190;2022-12-18T08:28:57;-6.70;99.90
46041;DHT22;31779;49.124;19.190;2022-12-18T08:31:26;-6.50;99.90
46041;DHT22;31779;49.124;19.190;2022-12-18T08:33:55;-5.90;99.90
46041;DHT22;31779;49.124;19.190;2022-12-18T08:36:24;-5.30;99.90
46041;DHT22;31779;49.124;19.190;2022-12-18T08:38:53;-5.60;99.90
46041;DHT22;31779;49.124;19.190;2022-12-18T08:41:22;-5.60;99.90
46041;DHT22;31779;49.124;19.190;2022-12-18T08:43:50;-4.90;99.90
46041;DHT22;31779;49.124;19.190;2022-12-18T08:46:39;-5.20;99.90
46041;DHT22;31779;49.124;19.190;2022-12-18T08:49:08;-5.10;99.90
46041;DHT22;31779;49.124;19.190;2022-12-18T08:51:38;-4.80;99.90
46041;DHT22;31779;49.124;19.190;2022-12-18T08:54:06;-4.80;99.90
46041;DHT22;31779;49.124;19.190;2022-12-18T08:56:34;-3.90;99.90
46041;DHT22;31779;49.124;19.190;2022-12-18T08:59:03;-3.10;99.90
46041;DHT22;31779;49.124;19.190;2022-12-18T09:01:32;-1.30;95.10
46041;DHT22;31779;49.124;19.190;2022-12-18T09:04:01;1.50;82.60
46041;DHT22;31779;49.124;19.190;2022-12-18T09:06:28;3.00;67.80
46041;DHT22;31779;49.124;19.190;2022-12-18T09:08:57;3.90;65.30
46041;DHT22;31779;49.124;19.190;2022-12-18T09:11:27;5.60;58.50
46041;DHT22;31779;49.124;19.190;2022-12-18T09:13:57;6.10;53.60
46041;DHT22;31779;49.124;19.190;2022-12-18T09:16:25;6.70;53.40
46041;DHT22;31779;49.124;19.190;2022-12-18T09:18:59;7.10;50.70
46041;DHT22;31779;49.124;19.190;2022-12-18T09:21:30;7.90;48.30
46041;DHT22;31779;49.124;19.190;2022-12-18T09:24:02;7.70;47.50
46041;DHT22;31779;49.124;19.190;2022-12-18T09:26:31;7.80;46.30
46041;DHT22;31779;49.124;19.190;2022-12-18T09:28:59;9.80;43.90
46041;DHT22;31779;49.124;19.190;2022-12-18T09:31:27;8.60;44.30
46041;DHT22;31779;49.124;19.190;2022-12-18T09:33:55;7.20;46.70
46041;DHT22;31779;49.124;19.190;2022-12-18T09:36:24;8.10;46.70
46041;DHT22;31779;49.124;19.190;2022-12-18T09:38:52;8.20;44.60
46041;DHT22;31779;49.124;19.190;2022-12-18T09:41:35;9.70;45.00
46041;DHT22;31779;49.124;19.190;2022-12-18T09:44:29;9.40;43.00
46041;DHT22;31779;49.124;19.190;2022-12-18T09:47:14;7.90;44.10
46041;DHT22;31779;49.124;19.190;2022-12-18T09:49:47;9.10;42.60
46041;DHT22;31779;49.124;19.190;2022-12-18T09:52:37;10.30;41.90
46041;DHT22;31779;49.124;19.190;2022-12-18T09:55:42;10.00;41.70
46041;DHT22;31779;49.124;19.190;2022-12-18T10:01:22;10.80;41.00
46041;DHT22;31779;49.124;19.190;2022-12-18T10:03:51;11.80;39.80
46041;DHT22;31779;49.124;19.190;2022-12-18T10:06:32;12.00;37.10
46041;DHT22;31779;49.124;19.190;2022-12-18T10:15:19;10.60;40.00
46041;DHT22;31779;49.124;19.190;2022-12-18T10:17:53;13.90;36.30
46041;DHT22;31779;49.124;19.190;2022-12-18T10:20:48;12.20;36.60
46041;DHT22;31779;49.124;19.190;2022-12-18T10:24:03;10.70;37.60
46041;DHT22;31779;49.124;19.190;2022-12-18T10:26:37;11.60;37.70
46041;DHT22;31779;49.124;19.190;2022-12-18T10:29:13;11.90;36.80
46041;DHT22;31779;49.124;19.190;2022-12-18T10:31:41;11.30;37.20
46041;DHT22;31779;49.124;19.190;2022-12-18T10:34:13;11.30;36.40
46041;DHT22;31779;49.124;19.190;2022-12-18T10:36:42;10.30;39.10
46041;DHT22;31779;49.124;19.190;2022-12-18T10:39:22;9.40;39.00
46041;DHT22;31779;49.124;19.190;2022-12-18T10:41:50;10.30;38.40
46041;DHT22;31779;49.124;19.190;2022-12-18T10:44:23;10.20;37.60
46041;DHT22;31779;49.124;19.190;2022-12-18T10:47:03;9.50;39.00
46041;DHT22;31779;49.124;19.190;2022-12-18T10:49:47;10.10;38.80
46041;DHT22;31779;49.124;19.190;2022-12-18T10:52:21;9.10;38.90
46041;DHT22;31779;49.124;19.190;2022-12-18T10:54:55;8.60;40.10
46041;DHT22;31779;49.124;19.190;2022-12-18T10:59:57;5.80;44.70
46041;DHT22;31779;49.124;19.190;2022-12-18T11:04:54;3.60;48.40
46041;DHT22;31779;49.124;19.190;2022-12-18T11:07:21;3.60;50.70
46041;DHT22;31779;49.124;19.190;2022-12-18T11:10:02;4.50;48.60
46041;DHT22;31779;49.124;19.190;2022-12-18T11:12:30;5.60;46.60
46041;DHT22;31779;49.124;19.190;2022-12-18T11:14:58;5.30;44.80
46041;DHT22;31779;49.124;19.190;2022-12-18T11:17:33;3.90;47.60
46041;DHT22;31779;49.124;19.190;2022-12-18T11:20:05;3.60;48.00
46041;DHT22;31779;49.124;19.190;2022-12-18T11:22:37;3.40;48.70
46041;DHT22;31779;49.124;19.190;2022-12-18T11:25:18;2.50;51.80
46041;DHT22;31779;49.124;19.190;2022-12-18T11:28:05;1.70;51.80
46041;DHT22;31779;49.124;19.190;2022-12-18T11:36:46;0.20;58.10
46041;DHT22;31779;49.124;19.190;2022-12-18T11:39:37;-1.40;59.10
46041;DHT22;31779;49.124;19.190;2022-12-18T11:48:01;-1.30;64.30
46041;DHT22;31779;49.124;19.190;2022-12-18T11:50:48;-1.30;65.20
46041;DHT22;31779;49.124;19.190;2022-12-18T11:53:18;-1.30;65.40
46041;DHT22;31779;49.124;19.190;2022-12-18T12:01:25;-2.00;68.10
46041;DHT22;31779;49.124;19.190;2022-12-18T12:06:42;-1.70;68.30
46041;DHT22;31779;49.124;19.190;2022-12-18T12:12:30;-0.90;66.60
46041;DHT22;31779;49.124;19.190;2022-12-18T12:18:53;-1.50;69.30
46041;DHT22;31779;49.124;19.190;2022-12-18T12:21:40;-1.10;70.10
46041;DHT22;31779;49.124;19.190;2022-12-18T12:24:44;-0.60;69.80
46041;DHT22;31779;49.124;19.190;2022-12-18T12:35:12;3.40;57.40
46041;DHT22;31779;49.124;19.190;2022-12-18T12:38:15;2.30;59.20
46041;DHT22;31779;49.124;19.190;2022-12-18T12:41:05;1.60;61.30
46041;DHT22;31779;49.124;19.190;2022-12-18T12:43:57;3.40;58.00
46041;DHT22;31779;49.124;19.190;2022-12-18T12:46:30;4.40;55.00
46041;DHT22;31779;49.124;19.190;2022-12-18T12:49:02;4.50;54.00
46041;DHT22;31779;49.124;19.190;2022-12-18T12:51:38;4.30;53.40
46041;DHT22;31779;49.124;19.190;2022-12-18T12:54:29;4.10;54.10
46041;DHT22;31779;49.124;19.190;2022-12-18T13:02:33;0.90;60.50
46041;DHT22;31779;49.124;19.190;2022-12-18T13:07:39;-1.00;65.20
46041;DHT22;31779;49.124;19.190;2022-12-18T13:25:59;-3.90;96.70
46041;DHT22;31779;49.124;19.190;2022-12-18T13:31:02;-4.30;99.20
46041;DHT22;31779;49.124;19.190;2022-12-18T13:36:15;-4.50;99.90
46041;DHT22;31779;49.124;19.190;2022-12-18T13:38:44;-4.50;99.90
46041;DHT22;31779;49.124;19.190;2022-12-18T13:41:22;-5.00;99.90
46041;DHT22;31779;49.124;19.190;2022-12-18T13:43:53;-5.00;99.90
46041;DHT22;31779;49.124;19.190;2022-12-18T13:46:31;-5.20;99.90
46041;DHT22;31779;49.124;19.190;2022-12-18T13:51:43;-5.60;99.90
46041;DHT22;31779;49.124;19.190;2022-12-18T13:56:47;-6.30;99.90
46041;DHT22;31779;49.124;19.190;2022-12-18T13:59:25;-6.10;99.90
46041;DHT22;31779;49.124;19.190;2022-12-18T14:01:59;-6.10;99.90
46041;DHT22;31779;49.124;19.190;2022-12-18T14:04:33;-6.30;99.90
46041;DHT22;31779;49.124;19.190;2022-12-18T14:07:04;-6.20;99.90
46041;DHT22;31779;49.124;19.190;2022-12-18T14:09:37;-6.50;99.90
46041;DHT22;31779;49.124;19.190;2022-12-18T14:12:29;-6.60;99.90
46041;DHT22;31779;49.124;19.190;2022-12-18T14:18:23;-6.50;99.90
46041;DHT22;31779;49.124;19.190;2022-12-18T14:20:53;-6.70;99.90
46041;DHT22;31779;49.124;19.190;2022-12-18T14:23:40;-6.80;99.90
46041;DHT22;31779;49.124;19.190;2022-12-18T14:26:28;-6.80;99.90
46041;DHT22;31779;49.124;19.190;2022-12-18T14:28:59;-6.90;99.90
46041;DHT22;31779;49.124;19.190;2022-12-18T14:31:32;-7.00;99.90
46041;DHT22;31779;49.124;19.190;2022-12-18T14:33:59;-7.10;99.90
46041;DHT22;31779;49.124;19.190;2022-12-18T14:36:28;-7.10;99.90
46041;DHT22;31779;49.124;19.190;2022-12-18T14:38:58;-7.20;99.90
46041;DHT22;31779;49.124;19.190;2022-12-18T14:41:27;-7.20;99.90
46041;DHT22;31779;49.124;19.190;2022-12-18T14:44:05;-7.30;99.90
46041;DHT22;31779;49.124;19.190;2022-12-18T14:46:39;-7.40;99.90
46041;DHT22;31779;49.124;19.190;2022-12-18T14:52:02;-7.50;99.90
46041;DHT22;31779;49.124;19.190;2022-12-18T14:54:32;-7.60;99.90
46041;DHT22;31779;49.124;19.190;2022-12-18T14:59:48;-7.80;99.90
46041;DHT22;31779;49.124;19.190;2022-12-18T15:02:23;-8.00;99.90
46041;DHT22;31779;49.124;19.190;2022-12-18T15:05:15;-8.10;99.90
46041;DHT22;31779;49.124;19.190;2022-12-18T15:07:47;-8.20;99.90
46041;DHT22;31779;49.124;19.190;2022-12-18T15:10:21;-8.30;99.90
46041;DHT22;31779;49.124;19.190;2022-12-18T15:23:52;-8.30;99.90
46041;DHT22;31779;49.124;19.190;2022-12-18T15:26:21;-8.40;99.90
46041;DHT22;31779;49.124;19.190;2022-12-18T15:28:55;-8.50;99.90
46041;DHT22;31779;49.124;19.190;2022-12-18T15:31:30;-8.50;99.90
46041;DHT22;31779;49.124;19.190;2022-12-18T15:34:14;-8.50;99.90
46041;DHT22;31779;49.124;19.190;2022-12-18T15:36:45;-8.60;99.90
46041;DHT22;31779;49.124;19.190;2022-12-18T15:39:14;-8.60;99.90
46041;DHT22;31779;49.124;19.190;2022-12-18T15:41:43;-8.60;99.90
46041;DHT22;31779;49.124;19.190;2022-12-18T15:44:31;-8.80;99.90
46041;DHT22;31779;49.124;19.190;2022-12-18T15:47:00;-8.80;99.90
46041;DHT22;31779;49.124;19.190;2022-12-18T15:49:28;-8.90;99.90
46041;DHT22;31779;49.124;19.190;2022-12-18T15:51:58;-9.00;99.90
46041;DHT22;31779;49.124;19.190;2022-12-18T15:54:26;-9.00;99.90
46041;DHT22;31779;49.124;19.190;2022-12-18T15:57:13;-9.10;99.90
46041;DHT22;31779;49.124;19.190;2022-12-18T15:59:52;-9.20;99.90
46041;DHT22;31779;49.124;19.190;2022-12-18T16:02:21;-9.20;99.90
46041;DHT22;31779;49.124;19.190;2022-12-18T16:04:51;-9.30;99.90
46041;DHT22;31779;49.124;19.190;2022-12-18T16:07:20;-9.40;99.90
46041;DHT22;31779;49.124;19.190;2022-12-18T16:09:53;-9.40;99.90
46041;DHT22;31779;49.124;19.190;2022-12-18T16:12:24;-9.40;99.90
46041;DHT22;31779;49.124;19.190;2022-12-18T16:14:53;-9.60;99.90
46041;DHT22;31779;49.124;19.190;2022-12-18T16:17:21;-9.80;99.90
46041;DHT22;31779;49.124;19.190;2022-12-18T16:19:49;-9.80;99.90
46041;DHT22;31779;49.124;19.190;2022-12-18T16:22:22;-9.70;99.90
46041;DHT22;31779;49.124;19.190;2022-12-18T16:24:53;-9.50;99.90
46041;DHT22;31779;49.124;19.190;2022-12-18T16:27:22;-9.50;99.90
46041;DHT22;31779;49.124;19.190;2022-12-18T16:29:50;-9.60;99.90
46041;DHT22;31779;49.124;19.190;2022-12-18T16:32:21;-9.70;99.90
46041;DHT22;31779;49.124;19.190;2022-12-18T16:34:52;-9.70;99.90
46041;DHT22;31779;49.124;19.190;2022-12-18T16:37:20;-9.70;99.90
46041;DHT22;31779;49.124;19.190;2022-12-18T16:39:48;-9.80;99.90
46041;DHT22;31779;49.124;19.190;2022-12-18T16:42:18;-9.80;99.90
46041;DHT22;31779;49.124;19.190;2022-12-18T16:44:48;-9.80;99.90
46041;DHT22;31779;49.124;19.190;2022-12-18T16:47:17;-9.80;99.90
46041;DHT22;31779;49.124;19.190;2022-12-18T16:49:48;-9.80;99.90
46041;DHT22;31779;49.124;19.190;2022-12-18T16:52:20;-9.90;99.90
46041;DHT22;31779;49.124;19.190;2022-12-18T16:54:49;-9.90;99.90
46041;DHT22;31779;49.124;19.190;2022-12-18T16:57:18;-9.90;99.90
46041;DHT22;31779;49.124;19.190;2022-12-18T16:59:50;-10.00;99.90
46041;DHT22;31779;49.124;19.190;2022-12-18T17:02:24;-10.10;99.90
46041;DHT22;31779;49.124;19.190;2022-12-18T17:04:56;-10.10;99.90
46041;DHT22;31779;49.124;19.190;2022-12-18T17:07:25;-10.00;99.90
46041;DHT22;31779;49.124;19.190;2022-12-18T17:09:56;-10.00;99.90
46041;DHT22;31779;49.124;19.190;2022-12-18T17:12:25;-10.10;99.90
46041;DHT22;31779;49.124;19.190;2022-12-18T17:14:54;-10.00;99.90
46041;DHT22;31779;49.124;19.190;2022-12-18T17:17:22;-10.00;99.90
46041;DHT22;31779;49.124;19.190;2022-12-18T17:19:51;-9.90;99.90
46041;DHT22;31779;49.124;19.190;2022-12-18T17:22:20;-9.90;99.90
46041;DHT22;31779;49.124;19.190;2022-12-18T17:24:50;-9.90;99.90
46041;DHT22;31779;49.124;19.190;2022-12-18T17:27:18;-9.80;99.90
46041;DHT22;31779;49.124;19.190;2022-12-18T17:29:46;-9.70;99.90
46041;DHT22;31779;49.124;19.190;2022-12-18T17:32:18;-9.70;99.90
46041;DHT22;31779;49.124;19.190;2022-12-18T17:34:49;-9.70;99.90
46041;DHT22;31779;49.124;19.190;2022-12-18T17:37:17;-9.80;99.90
46041;DHT22;31779;49.124;19.190;2022-12-18T17:39:45;-9.80;99.90
46041;DHT22;31779;49.124;19.190;2022-12-18T17:42:13;-9.60;99.90
46041;DHT22;31779;49.124;19.190;2022-12-18T17:44:42;-9.60;99.90
46041;DHT22;31779;49.124;19.190;2022-12-18T17:47:12;-9.60;99.90
46041;DHT22;31779;49.124;19.190;2022-12-18T17:49:40;-9.60;99.90
46041;DHT22;31779;49.124;19.190;2022-12-18T17:52:09;-9.40;99.90
46041;DHT22;31779;49.124;19.190;2022-12-18T17:54:37;-9.50;99.90
46041;DHT22;31779;49.124;19.190;2022-12-18T17:57:09;-9.40;99.90